Time;durP1;ratioP1;P1;durP2;ratioP2;P2;SDS_P1;SDS_P2;PMS_P1;PMS_P2;Temp;Humidity;BMP_temperature;BMP_pressure;BME280_temperature;BME280_humidity;BME280_pressure;Samples;Min_cycle;Max_cycle;Signal;HPM_P1;HPM_P2
2022/06/01 00:00:24;;;;;;;;;;;;;;;21.30;29.23;97916.72;4898989;29;1007;-76
2022/06/01 00:02:50;;;;;;;;;;;;;;;21.19;29.21;97909.69;4912040;29;1903;-76
2022/06/01 00:05:15;;;;;;;;;;;;;;;21.19;29.30;97909.69;4987004;28;1042;-76
2022/06/01 00:07:41;;;;;;;;;;;;;;;21.28;29.32;97907.81;4955332;29;1016;-76
2022/06/01 00:10:06;;;;;;;;;;;;;;;21.36;29.14;97904.84;4955967;29;1034;-76
2022/06/01 00:12:34;;;;;;;;;;;;;;;21.67;28.65;97900.31;4971761;28;1066;-76
2022/06/01 00:15:00;;;;;;;;;;;;;;;21.82;28.26;97895.84;4955573;29;987;-76
2022/06/01 00:17:26;;;;;;;;;;;;;;;21.63;28.43;97893.16;4941100;29;1481;-76
2022/06/01 00:19:51;;;;;;;;;;;;;;;21.29;28.95;97886.75;4965160;28;1023;-76
2022/06/01 00:22:17;;;;;;;;;;;;;;;21.28;29.11;97895.69;4974640;28;1971;-76
2022/06/01 00:24:43;;;;;;;;;;;;;;;21.25;28.97;97886.09;4955500;29;987;-76
2022/06/01 00:27:08;;;;;;;;;;;;;;;21.23;29.22;97885.72;4955268;29;1087;-76
2022/06/01 00:29:34;;;;;;;;;;;;;;;21.27;29.26;97883.59;4936248;29;1019;-76
2022/06/01 00:32:00;;;;;;;;;;;;;;;21.16;29.10;97877.44;4936234;29;958;-76
2022/06/01 00:34:25;;;;;;;;;;;;;;;21.07;29.39;97877.25;4936068;29;1031;-76
2022/06/01 00:36:51;;;;;;;;;;;;;;;21.08;29.49;97871.16;4936343;29;1006;-76
2022/06/01 00:39:16;;;;;;;;;;;;;;;21.11;29.14;97868.69;4936369;29;978;-76
2022/06/01 00:41:41;;;;;;;;;;;;;;;21.75;28.53;97864.88;4936348;29;1025;-76
2022/06/01 00:44:07;;;;;;;;;;;;;;;21.87;28.13;97856.88;4936004;29;1985;-76
2022/06/01 00:46:32;;;;;;;;;;;;;;;21.67;28.28;97863.50;4936071;29;977;-76
2022/06/01 00:49:01;;;;;;;;;;;;;;;21.39;28.88;97858.66;4936455;29;1014;-76
2022/06/01 00:51:26;;;;;;;;;;;;;;;21.30;28.98;97862.13;4936117;29;978;-76
2022/06/01 00:53:52;;;;;;;;;;;;;;;21.22;29.04;97853.00;4898468;29;1167;-76
2022/06/01 00:56:19;;;;;;;;;;;;;;;21.25;28.98;97854.97;4895856;29;959;-76
2022/06/01 00:58:45;;;;;;;;;;;;;;;21.28;29.09;97856.88;4915998;29;944;-76
2022/06/01 01:01:11;;;;;;;;;;;;;;;21.12;29.57;97853.31;4920618;29;971;-76
2022/06/01 01:03:38;;;;;;;;;;;;;;;21.21;29.19;97853.47;4920448;29;1919;-76
2022/06/01 01:06:10;;;;;;;;;;;;;;;21.25;29.31;97843.63;4922468;29;1223;-76
2022/06/01 01:08:35;;;;;;;;;;;;;;;21.70;28.77;97848.44;4939540;29;962;-77
2022/06/01 01:11:01;;;;;;;;;;;;;;;21.74;28.40;97860.47;4923547;29;1006;-76
2022/06/01 01:13:26;;;;;;;;;;;;;;;21.57;28.64;97861.78;4939149;29;937;-76
2022/06/01 01:15:54;;;;;;;;;;;;;;;21.51;28.82;97852.25;4939226;29;1057;-76
2022/06/01 01:18:23;;;;;;;;;;;;;;;21.29;29.15;97847.13;4923852;29;984;-76
2022/06/01 01:21:02;;;;;;;;;;;;;;;21.19;29.47;97848.25;4882306;29;1086;-76
2022/06/01 01:23:38;;;;;;;;;;;;;;;21.16;29.18;97849.13;4882864;29;1906;-76
2022/06/01 01:26:04;;;;;;;;;;;;;;;21.06;29.49;97838.91;4882749;29;984;-76
2022/06/01 01:28:29;;;;;;;;;;;;;;;21.20;29.19;97844.19;4882680;29;1003;-76
2022/06/01 01:31:05;;;;;;;;;;;;;;;21.11;29.32;97841.19;4895155;29;966;-75
2022/06/01 01:33:31;;;;;;;;;;;;;;;21.13;29.46;97843.56;4919620;29;986;-76
2022/06/01 01:36:01;;;;;;;;;;;;;;;21.57;28.80;97844.78;4919796;29;917;-76
2022/06/01 01:38:45;;;;;;;;;;;;;;;21.71;28.64;97850.06;4919725;29;1036;-76
2022/06/01 01:41:29;;;;;;;;;;;;;;;21.99;28.27;97847.59;4919925;29;1010;-76
2022/06/01 01:43:59;;;;;;;;;;;;;;;21.46;29.20;97847.16;4919340;29;1976;-76
2022/06/01 01:46:25;;;;;;;;;;;;;;;21.19;29.70;97841.78;4920289;29;936;-76
2022/06/01 01:48:51;;;;;;;;;;;;;;;21.12;29.73;97848.44;4919800;29;1030;-76
2022/06/01 01:51:22;;;;;;;;;;;;;;;21.25;30.04;97845.69;4930482;29;936;-76
2022/06/01 01:53:48;;;;;;;;;;;;;;;21.28;29.75;97842.72;4957893;29;1121;-76
2022/06/01 01:56:20;;;;;;;;;;;;;;;21.18;29.91;97843.81;4958057;29;986;-77
2022/06/01 01:58:46;;;;;;;;;;;;;;;20.99;30.50;97841.94;4941546;29;1030;-76
2022/06/01 02:01:13;;;;;;;;;;;;;;;21.74;29.29;97837.81;4957831;29;1056;-76
2022/06/01 02:03:44;;;;;;;;;;;;;;;22.03;28.68;97845.44;4947680;28;1903;-76
2022/06/01 02:06:14;;;;;;;;;;;;;;;22.08;28.57;97844.88;4997577;28;911;-76
2022/06/01 02:08:41;;;;;;;;;;;;;;;22.01;28.50;97848.72;4998563;28;980;-76
2022/06/01 02:13:58;;;;;;;;;;;;;;;21.26;30.02;97833.91;4998384;28;966;-76
2022/06/01 02:16:24;;;;;;;;;;;;;;;21.40;30.23;97840.41;4957172;29;1165;-76
2022/06/01 02:18:50;;;;;;;;;;;;;;;21.31;30.19;97844.72;4957049;29;990;-76
2022/06/01 02:21:18;;;;;;;;;;;;;;;21.32;30.28;97834.97;4957613;29;955;-76
2022/06/01 02:23:44;;;;;;;;;;;;;;;21.24;30.40;97844.06;4957490;29;1983;-76
2022/06/01 02:26:09;;;;;;;;;;;;;;;21.27;30.46;97832.66;4941358;29;1054;-76
2022/06/01 02:28:35;;;;;;;;;;;;;;;21.29;30.60;97835.81;4937967;29;978;-76
2022/06/01 02:31:00;;;;;;;;;;;;;;;21.26;30.43;97839.56;4922169;29;1040;-76
2022/06/01 02:33:28;;;;;;;;;;;;;;;21.20;30.92;97840.56;4938049;29;1007;-76
2022/06/01 02:35:54;;;;;;;;;;;;;;;21.68;30.34;97845.28;4937954;29;1004;-76
2022/06/01 02:38:21;;;;;;;;;;;;;;;21.92;29.69;97845.00;4937854;29;994;-76
2022/06/01 02:40:46;;;;;;;;;;;;;;;21.66;29.99;97850.59;4922156;29;949;-76
2022/06/01 02:43:12;;;;;;;;;;;;;;;21.51;30.27;97846.59;4918439;29;1984;-76
2022/06/01 02:45:38;;;;;;;;;;;;;;;21.24;30.79;97844.88;4918551;29;974;-76
2022/06/01 02:48:04;;;;;;;;;;;;;;;21.32;30.55;97849.13;4948287;29;1018;-76
2022/06/01 02:50:30;;;;;;;;;;;;;;;21.25;30.64;97846.47;4918557;29;957;-76
2022/06/01 02:52:56;;;;;;;;;;;;;;;21.21;31.06;97851.44;4918370;29;990;-76
2022/06/01 02:55:21;;;;;;;;;;;;;;;21.57;30.63;97851.25;4918469;29;924;-76
2022/06/01 02:57:47;;;;;;;;;;;;;;;21.88;30.31;97853.59;4918455;29;1043;-76
2022/06/01 03:00:17;;;;;;;;;;;;;;;21.91;29.74;97852.66;4933042;29;979;-76
2022/06/01 03:02:43;;;;;;;;;;;;;;;21.54;30.39;97851.34;4937228;29;1911;-76
2022/06/01 03:05:09;;;;;;;;;;;;;;;21.28;30.83;97856.88;4899502;29;1049;-76
2022/06/01 03:07:34;;;;;;;;;;;;;;;21.29;30.76;97855.63;4899384;29;1124;-76
2022/06/01 03:10:00;;;;;;;;;;;;;;;21.33;30.79;97864.84;4899412;29;970;-76
2022/06/01 03:12:25;;;;;;;;;;;;;;;21.32;30.86;97857.59;4899518;29;965;-76
2022/06/01 03:14:51;;;;;;;;;;;;;;;21.17;31.00;97855.59;4899144;29;935;-76
2022/06/01 03:17:16;;;;;;;;;;;;;;;21.28;30.88;97859.72;4899071;29;1082;-76
2022/06/01 03:19:41;;;;;;;;;;;;;;;21.13;30.92;97860.53;4903272;29;923;-76
2022/06/01 03:22:07;;;;;;;;;;;;;;;21.36;30.73;97865.22;4937497;29;970;-76
2022/06/01 03:24:32;;;;;;;;;;;;;;;21.70;30.86;97856.94;4936808;29;1895;-76
2022/06/01 03:26:58;;;;;;;;;;;;;;;22.03;30.14;97859.63;4939324;29;1021;-76
2022/06/01 03:29:24;;;;;;;;;;;;;;;21.79;30.25;97862.75;4956301;29;973;-76
2022/06/01 03:31:50;;;;;;;;;;;;;;;21.55;30.39;97852.94;4955876;29;1034;-76
2022/06/01 03:34:16;;;;;;;;;;;;;;;21.51;30.64;97857.91;4958737;28;1251;-76
2022/06/01 03:36:41;;;;;;;;;;;;;;;21.38;30.73;97857.06;4963792;28;1225;-76
2022/06/01 03:39:06;;;;;;;;;;;;;;;21.36;31.03;97857.53;4932222;28;1267;-76
2022/06/01 03:41:32;;;;;;;;;;;;;;;21.33;30.86;97856.38;4969919;28;1203;-76
2022/06/01 03:46:41;;;;;;;;;;;;;;;21.30;30.87;97860.09;5016407;28;957;-76
2022/06/01 03:49:07;;;;;;;;;;;;;;;21.31;30.94;97864.50;5016465;28;959;-76
2022/06/01 03:51:32;;;;;;;;;;;;;;;21.26;31.17;97869.91;5016799;28;954;-76
2022/06/01 03:53:58;;;;;;;;;;;;;;;21.33;30.78;97869.72;5016535;28;936;-76
2022/06/01 03:56:23;;;;;;;;;;;;;;;21.39;30.78;97873.59;5016482;28;971;-76
2022/06/01 03:58:49;;;;;;;;;;;;;;;21.73;30.88;97867.38;5017037;28;906;-76
2022/06/01 04:01:15;;;;;;;;;;;;;;;21.81;30.93;97880.09;5016993;28;901;-76
2022/06/01 04:03:40;;;;;;;;;;;;;;;21.58;30.97;97871.84;5016283;28;1906;-76
2022/06/01 04:06:06;;;;;;;;;;;;;;;21.37;31.34;97875.28;4998067;28;985;-76
2022/06/01 04:08:31;;;;;;;;;;;;;;;21.29;31.24;97875.44;5004342;28;1234;-76
2022/06/01 04:10:57;;;;;;;;;;;;;;;21.18;31.40;97886.25;4978491;28;963;-76
2022/06/01 04:13:23;;;;;;;;;;;;;;;21.14;31.67;97885.59;4996613;28;963;-77
2022/06/01 04:15:48;;;;;;;;;;;;;;;21.15;31.20;97884.34;4996547;28;931;-76
2022/06/01 04:18:14;;;;;;;;;;;;;;;21.05;31.55;97876.94;4997261;28;1181;-76
2022/06/01 04:20:39;;;;;;;;;;;;;;;21.28;31.08;97884.38;4996757;28;890;-76
2022/06/01 04:23:05;;;;;;;;;;;;;;;21.22;31.26;97886.97;4996886;28;1973;-75
2022/06/01 04:25:30;;;;;;;;;;;;;;;21.16;31.55;97888.75;4996439;28;921;-76
2022/06/01 04:27:56;;;;;;;;;;;;;;;21.19;31.25;97893.53;4978121;28;1021;-76
2022/06/01 04:30:21;;;;;;;;;;;;;;;21.15;31.29;97887.16;4976051;28;1009;-76
2022/06/01 04:32:47;;;;;;;;;;;;;;;21.35;31.42;97889.06;4978488;28;1121;-76
2022/06/01 04:35:12;;;;;;;;;;;;;;;21.66;31.30;97893.06;4962241;28;963;-76
2022/06/01 04:37:38;;;;;;;;;;;;;;;20.52;30.62;97669.88;4978371;28;1014;-76
2022/06/01 04:40:04;;;;;;;;;;;;;;;21.84;30.60;97899.00;4978665;28;1010;-77
2022/06/01 04:42:29;;;;;;;;;;;;;;;21.42;31.57;97905.88;4978438;28;1981;-76
2022/06/01 04:44:55;;;;;;;;;;;;;;;21.57;31.16;97901.41;4978440;28;911;-76
2022/06/01 04:47:20;;;;;;;;;;;;;;;21.42;30.97;97906.69;4978722;28;941;-76
2022/06/01 04:49:46;;;;;;;;;;;;;;;21.29;31.19;97908.59;4978356;28;913;-76
2022/06/01 04:52:12;;;;;;;;;;;;;;;21.26;31.08;97910.31;4939558;29;1008;-76
2022/06/01 04:54:37;;;;;;;;;;;;;;;21.27;31.22;97908.28;4939511;29;1217;-76
2022/06/01 04:57:03;;;;;;;;;;;;;;;21.30;31.35;97911.03;4923631;29;932;-76
2022/06/01 04:59:28;;;;;;;;;;;;;;;21.39;30.93;97912.44;4939819;29;1089;-76
2022/06/01 05:01:54;;;;;;;;;;;;;;;21.36;30.90;97916.16;4968170;28;955;-76
2022/06/01 05:04:19;;;;;;;;;;;;;;;21.16;31.42;97914.22;4977862;28;1985;-76
2022/06/01 05:06:45;;;;;;;;;;;;;;;21.40;31.24;97920.50;4977784;28;958;-76
2022/06/01 05:09:10;;;;;;;;;;;;;;;21.40;30.82;97920.50;4977710;28;926;-75
2022/06/01 05:11:35;;;;;;;;;;;;;;;21.51;31.85;97926.66;4977904;28;994;-76
2022/06/01 05:14:01;;;;;;;;;;;;;;;21.79;31.95;97927.88;4977646;28;961;-76
2022/06/01 05:16:26;;;;;;;;;;;;;;;22.11;31.35;97937.50;4977887;28;1298;-76
2022/06/01 05:18:52;;;;;;;;;;;;;;;21.75;31.38;97930.00;4977806;28;1032;-76
2022/06/01 05:21:17;;;;;;;;;;;;;;;21.59;31.58;97932.91;4977824;28;1175;-76
2022/06/01 05:23:43;;;;;;;;;;;;;;;21.46;31.84;97932.06;4977760;28;2032;-76
2022/06/01 05:26:08;;;;;;;;;;;;;;;21.44;32.05;97926.03;4977818;28;958;-76
2022/06/01 05:28:34;;;;;;;;;;;;;;;21.41;31.86;97938.25;4978837;28;995;-76
2022/06/01 05:31:01;;;;;;;;;;;;;;;21.31;32.03;97938.09;4996722;28;974;-76
2022/06/01 05:33:27;;;;;;;;;;;;;;;21.28;31.91;97936.13;4964600;28;1791;-76
2022/06/01 05:35:52;;;;;;;;;;;;;;;21.46;31.79;97929.22;4996882;28;924;-76
2022/06/01 05:38:18;;;;;;;;;;;;;;;21.20;31.73;97923.41;4996956;28;1014;-76
2022/06/01 05:40:43;;;;;;;;;;;;;;;21.35;31.54;97934.34;4996534;28;962;-76
2022/06/01 05:43:10;;;;;;;;;;;;;;;21.29;31.40;97934.88;4996866;28;1906;-76
2022/06/01 05:45:35;;;;;;;;;;;;;;;21.42;31.35;97939.84;4997000;28;933;-76
2022/06/01 05:48:01;;;;;;;;;;;;;;;21.26;31.41;97938.59;4964312;28;884;-76
2022/06/01 05:50:26;;;;;;;;;;;;;;;21.21;31.32;97927.81;4996826;28;963;-76
2022/06/01 05:52:51;;;;;;;;;;;;;;;21.36;31.35;97933.94;4996828;28;1031;-76
2022/06/01 05:55:17;;;;;;;;;;;;;;;21.28;31.13;97932.50;4996483;28;931;-76
2022/06/01 05:57:42;;;;;;;;;;;;;;;21.31;31.02;97937.31;4996345;28;1085;-76
2022/06/01 06:00:10;;;;;;;;;;;;;;;21.18;31.42;97927.91;4957668;29;958;-76
2022/06/01 06:02:38;;;;;;;;;;;;;;;21.20;31.52;97929.06;4952825;29;1972;-76
2022/06/01 06:06:11;;;;;;;;;;;;;;;21.18;31.39;97942.84;4919608;29;984;-76
2022/06/01 06:07:49;;;;;;;;;;;;;;;21.21;31.32;97930.66;4919471;29;999;-76
2022/06/01 06:10:15;;;;;;;;;;;;;;;21.07;31.54;97931.81;4919131;29;1029;-76
2022/06/01 06:12:41;;;;;;;;;;;;;;;21.19;31.25;97933.16;4900548;29;1035;-76
2022/06/01 06:15:07;;;;;;;;;;;;;;;21.64;31.60;97935.19;4900464;29;1104;-76
2022/06/01 06:17:32;;;;;;;;;;;;;;;21.80;31.48;97937.97;4900387;29;1163;-76
2022/06/01 06:19:58;;;;;;;;;;;;;;;21.72;31.49;97933.75;4900190;29;965;-76
2022/06/01 06:22:25;;;;;;;;;;;;;;;21.31;31.78;97937.31;4900152;29;1972;-76
2022/06/01 06:24:53;;;;;;;;;;;;;;;21.52;31.65;97939.56;4899910;29;1014;-76
2022/06/01 06:27:19;;;;;;;;;;;;;;;21.46;31.25;97929.22;4900043;29;1131;-76
2022/06/01 06:29:45;;;;;;;;;;;;;;;21.29;31.81;97937.69;4884323;29;1014;-76
2022/06/01 06:32:10;;;;;;;;;;;;;;;21.30;31.26;97945.00;4919285;29;1051;-76
2022/06/01 06:34:36;;;;;;;;;;;;;;;21.29;31.27;97936.91;4905956;29;1007;-76
2022/06/01 06:37:01;;;;;;;;;;;;;;;21.36;31.14;97930.31;4937617;29;993;-76
2022/06/01 06:39:26;;;;;;;;;;;;;;;21.37;30.96;97937.56;4937541;29;1052;-76
2022/06/01 06:41:52;;;;;;;;;;;;;;;21.28;31.03;97938.94;4947178;28;1004;-76
2022/06/01 06:44:17;;;;;;;;;;;;;;;21.27;31.37;97940.19;4992687;28;1981;-76
2022/06/01 06:46:44;;;;;;;;;;;;;;;21.30;31.02;97938.56;4997944;28;1034;-76
2022/06/01 06:49:09;;;;;;;;;;;;;;;21.39;30.59;97940.72;4998053;28;901;-76
2022/06/01 06:51:35;;;;;;;;;;;;;;;21.33;30.89;97934.81;4997676;28;949;-76
2022/06/01 06:54:01;;;;;;;;;;;;;;;21.37;30.71;97940.38;4996928;28;976;-76
2022/06/01 06:56:27;;;;;;;;;;;;;;;21.25;31.06;97937.03;4997777;28;1050;-76
2022/06/01 06:58:52;;;;;;;;;;;;;;;21.19;30.98;97938.81;4997321;28;980;-76
2022/06/01 07:01:18;;;;;;;;;;;;;;;21.29;30.67;97937.69;4979415;28;1072;-76
2022/06/01 07:03:43;;;;;;;;;;;;;;;21.32;30.61;97931.19;4997379;28;1898;-76
2022/06/01 07:06:09;;;;;;;;;;;;;;;21.23;31.00;97933.03;4997437;28;887;-76
2022/06/01 07:08:35;;;;;;;;;;;;;;;21.26;30.81;97932.94;4997402;28;1191;-76
2022/06/01 07:11:01;;;;;;;;;;;;;;;21.18;31.11;97928.69;4963165;28;980;-76
2022/06/01 07:13:29;;;;;;;;;;;;;;;21.20;31.16;97929.06;4997310;28;941;-76
2022/06/01 07:16:05;;;;;;;;;;;;;;;21.29;30.81;97926.38;4979371;28;1590;-76
2022/06/01 07:18:31;;;;;;;;;;;;;;;21.33;30.77;97927.13;4996292;28;939;-76
2022/06/01 07:20:58;;;;;;;;;;;;;;;21.13;30.85;97932.06;4995844;28;1001;-76
2022/06/01 07:23:23;;;;;;;;;;;;;;;21.18;30.90;97931.53;4997100;28;1898;-76
2022/06/01 07:25:48;;;;;;;;;;;;;;;21.19;30.84;97919.00;4997072;28;1003;-76
2022/06/01 07:28:14;;;;;;;;;;;;;;;21.22;31.10;97926.56;4997210;28;1037;-76
2022/06/01 07:30:39;;;;;;;;;;;;;;;21.27;30.67;97928.88;4997028;28;1175;-76
2022/06/01 07:33:05;;;;;;;;;;;;;;;21.36;30.46;97941.63;4997029;28;876;-76
2022/06/01 07:35:30;;;;;;;;;;;;;;;21.22;30.72;97926.56;4996864;28;914;-76
2022/06/01 07:43:24;;;;;;;;;;;;;;;21.26;30.83;97932.94;4995985;28;1894;-76
2022/06/01 07:45:49;;;;;;;;;;;;;;;21.36;30.76;97936.75;4996535;28;1074;-76
2022/06/01 07:48:16;;;;;;;;;;;;;;;21.28;30.68;97936.13;4997217;28;1033;-76
2022/06/01 07:50:42;;;;;;;;;;;;;;;21.33;30.50;97932.78;4997070;28;947;-76
2022/06/01 07:53:07;;;;;;;;;;;;;;;21.42;30.28;97928.53;4996733;28;877;-76
2022/06/01 07:55:34;;;;;;;;;;;;;;;21.84;31.09;97937.88;4996691;28;893;-76
2022/06/01 07:58:00;;;;;;;;;;;;;;;21.99;30.81;97929.75;4962429;28;1013;-76
2022/06/01 08:00:25;;;;;;;;;;;;;;;22.02;31.20;97926.00;4996836;28;932;-76
2022/06/01 08:02:51;;;;;;;;;;;;;;;21.62;31.36;97932.03;4996610;28;1906;-76
2022/06/01 08:05:17;;;;;;;;;;;;;;;21.54;31.35;97933.44;4999417;28;938;-76
2022/06/01 08:07:43;;;;;;;;;;;;;;;21.49;31.46;97933.97;5000493;28;961;-76
2022/06/01 08:10:09;;;;;;;;;;;;;;;21.52;31.26;97950.09;5001042;28;1051;-75
2022/06/01 08:15:18;;;;;;;;;;;;;;;21.35;31.63;97940.03;5000677;28;1186;-77
2022/06/01 08:17:46;;;;;;;;;;;;;;;21.35;31.24;97937.19;5000158;28;1077;-76
2022/06/01 08:20:12;;;;;;;;;;;;;;;21.32;31.32;97942.50;5000593;28;889;-76
2022/06/01 08:22:38;;;;;;;;;;;;;;;21.31;31.34;97946.59;5000470;28;1902;-74
2022/06/01 08:25:03;;;;;;;;;;;;;;;21.25;31.25;97951.16;5000495;28;958;-74
2022/06/01 08:27:29;;;;;;;;;;;;;;;21.21;31.63;97953.28;4982201;28;988;-74
2022/06/01 08:29:54;;;;;;;;;;;;;;;21.29;31.07;97949.03;5000586;28;930;-74
2022/06/01 08:32:20;;;;;;;;;;;;;;;21.23;31.18;97956.47;5000228;28;948;-74
2022/06/01 08:34:45;;;;;;;;;;;;;;;21.42;31.13;97956.84;5000040;28;943;-74
2022/06/01 08:37:10;;;;;;;;;;;;;;;21.38;30.99;97956.91;4999998;28;869;-74
2022/06/01 08:39:36;;;;;;;;;;;;;;;21.45;30.67;97961.59;5000224;28;1011;-75
2022/06/01 08:42:01;;;;;;;;;;;;;;;21.42;30.68;97951.16;4999909;28;899;-75
2022/06/01 08:44:31;;;;;;;;;;;;;;;21.41;30.71;97960.91;4978150;28;1899;-75
2022/06/01 08:46:58;;;;;;;;;;;;;;;21.27;31.02;97962.84;4978273;28;1092;-75
2022/06/01 08:49:25;;;;;;;;;;;;;;;21.17;31.31;97958.25;4978126;28;935;-75
2022/06/01 08:51:51;;;;;;;;;;;;;;;21.22;30.99;97966.19;4962336;28;1027;-75
2022/06/01 08:54:16;;;;;;;;;;;;;;;21.35;30.86;97957.00;4958484;29;1128;-75
2022/06/01 08:56:43;;;;;;;;;;;;;;;21.31;30.93;97954.28;4958570;29;964;-75
2022/06/01 08:59:28;;;;;;;;;;;;;;;21.42;30.65;97957.63;4942890;29;1086;-75
2022/06/01 09:01:59;;;;;;;;;;;;;;;21.38;30.84;97961.78;4958676;29;1045;-75
2022/06/01 09:04:37;;;;;;;;;;;;;;;21.21;31.16;97958.16;4942463;29;1984;-74
2022/06/01 09:07:05;;;;;;;;;;;;;;;21.21;30.97;97961.78;4942428;29;1521;-75
2022/06/01 09:09:51;;;;;;;;;;;;;;;21.32;30.64;97959.50;4958354;29;1171;-75
2022/06/01 09:12:17;;;;;;;;;;;;;;;21.37;30.60;97960.19;4958384;29;1011;-75
2022/06/01 09:14:42;;;;;;;;;;;;;;;21.41;30.45;97960.91;4946459;28;1032;-75
2022/06/01 09:17:08;;;;;;;;;;;;;;;21.40;30.48;97967.78;4977085;28;1448;-75
2022/06/01 09:22:37;;;;;;;;;;;;;;;21.28;30.90;97952.31;4977751;28;991;-75
2022/06/01 09:25:03;;;;;;;;;;;;;;;21.33;30.63;97960.28;4986446;28;977;-75
2022/06/01 09:27:45;;;;;;;;;;;;;;;21.27;30.75;97960.00;4958020;29;981;-75
2022/06/01 09:30:21;;;;;;;;;;;;;;;21.25;30.91;97953.22;4942056;29;1143;-75
2022/06/01 09:32:58;;;;;;;;;;;;;;;21.06;31.09;97954.91;4958165;29;1117;-75
2022/06/01 09:35:24;;;;;;;;;;;;;;;21.18;30.88;97954.16;4957878;29;1000;-75
2022/06/01 09:37:49;;;;;;;;;;;;;;;21.23;30.62;97953.63;4955217;29;983;-75
2022/06/01 09:40:25;;;;;;;;;;;;;;;21.26;30.71;97949.94;4958238;29;996;-75
2022/06/01 09:42:51;;;;;;;;;;;;;;;21.15;31.08;97943.75;4957739;29;1910;-75
2022/06/01 09:45:27;;;;;;;;;;;;;;;21.18;31.08;97954.16;4957998;29;1008;-75
2022/06/01 09:47:52;;;;;;;;;;;;;;;21.21;30.68;97949.66;4957888;29;1014;-75
2022/06/01 09:50:21;;;;;;;;;;;;;;;21.31;30.54;97946.59;4941993;29;1029;-75
2022/06/01 09:52:46;;;;;;;;;;;;;;;21.26;30.55;97949.94;4957693;29;999;-75
2022/06/01 09:55:13;;;;;;;;;;;;;;;21.08;30.87;97944.72;4957880;29;1040;-75
2022/06/01 09:57:39;;;;;;;;;;;;;;;21.16;30.78;97945.34;4964616;28;987;-75
2022/06/01 10:06:25;;;;;;;;;;;;;;;21.23;30.67;97947.97;4998298;28;938;-75
2022/06/01 10:09:10;;;;;;;;;;;;;;;21.22;30.73;97943.56;4938084;29;999;-75
2022/06/01 10:11:42;;;;;;;;;;;;;;;21.24;30.50;97934.63;4938388;29;1103;-75
2022/06/01 10:14:08;;;;;;;;;;;;;;;21.17;30.71;97929.94;4938219;29;1134;-75
2022/06/01 10:16:35;;;;;;;;;;;;;;;21.34;30.59;97933.56;4937401;29;2113;-75
2022/06/01 10:19:00;;;;;;;;;;;;;;;21.33;30.72;97927.13;4938334;29;1003;-75
2022/06/01 10:21:28;;;;;;;;;;;;;;;21.32;30.30;97931.19;4954303;29;1003;-75
2022/06/01 10:23:53;;;;;;;;;;;;;;;21.32;30.52;97924.75;4954099;29;1906;-75
2022/06/01 10:26:26;;;;;;;;;;;;;;;21.17;30.98;97918.63;4938192;29;934;-76
2022/06/01 10:28:52;;;;;;;;;;;;;;;21.22;30.73;97923.75;4953824;28;1057;-75
2022/06/01 10:31:18;;;;;;;;;;;;;;;21.08;30.90;97922.06;4937868;29;1098;-75
2022/06/01 10:33:45;;;;;;;;;;;;;;;21.22;30.82;97925.78;4956983;29;987;-75
2022/06/01 10:36:16;;;;;;;;;;;;;;;21.19;30.73;97926.66;4956835;29;1083;-75
2022/06/01 10:38:52;;;;;;;;;;;;;;;21.27;30.54;97922.41;4957134;29;998;-75
2022/06/01 10:41:17;;;;;;;;;;;;;;;21.28;30.62;97924.78;4918828;29;886;-75
2022/06/01 10:44:02;;;;;;;;;;;;;;;21.20;30.96;97920.56;4918615;29;1981;-75
2022/06/01 10:46:36;;;;;;;;;;;;;;;21.17;30.65;97912.19;4934455;29;990;-75
2022/06/01 10:49:02;;;;;;;;;;;;;;;21.22;30.45;97915.25;4918608;29;946;-75
2022/06/01 10:51:28;;;;;;;;;;;;;;;21.40;30.31;97914.00;4918701;29;951;-75
2022/06/01 10:54:12;;;;;;;;;;;;;;;21.24;30.62;97917.63;4918700;29;1119;-75
2022/06/01 10:56:37;;;;;;;;;;;;;;;21.36;30.42;97927.47;4918447;29;1012;-76
2022/06/01 10:59:07;;;;;;;;;;;;;;;21.26;30.71;97927.28;4918289;29;1028;-75
2022/06/01 11:01:45;;;;;;;;;;;;;;;21.29;30.43;97923.56;4917883;29;1294;-75
2022/06/01 11:04:13;;;;;;;;;;;;;;;21.20;30.82;97929.06;4918118;29;1964;-75
2022/06/01 11:06:57;;;;;;;;;;;;;;;21.43;30.16;97930.13;4918397;29;925;-75
2022/06/01 11:09:31;;;;;;;;;;;;;;;21.25;30.87;97924.91;4918517;29;996;-75
2022/06/01 11:12:00;;;;;;;;;;;;;;;21.32;30.47;97924.75;4948620;28;904;-75
2022/06/01 11:14:29;;;;;;;;;;;;;;;21.40;30.37;97925.31;4976865;28;971;-74
2022/06/01 11:17:01;;;;;;;;;;;;;;;21.23;30.69;97916.84;4978228;28;1129;-75
2022/06/01 11:19:32;;;;;;;;;;;;;;;21.22;30.63;97914.47;4976549;28;1054;-75
2022/06/01 11:22:07;;;;;;;;;;;;;;;21.31;30.73;97912.63;4976220;28;1032;-75
2022/06/01 11:24:39;;;;;;;;;;;;;;;21.20;31.03;97912.09;4955505;29;1975;-75
2022/06/01 11:27:07;;;;;;;;;;;;;;;21.18;31.03;97911.72;4955817;29;1270;-75
2022/06/01 11:29:48;;;;;;;;;;;;;;;21.19;30.81;97913.34;4955549;28;954;-75
2022/06/01 11:32:15;;;;;;;;;;;;;;;21.19;30.64;97910.50;4955728;29;1045;-75
2022/06/01 11:34:50;;;;;;;;;;;;;;;21.27;30.53;97906.22;4956090;29;973;-75
2022/06/01 11:37:29;;;;;;;;;;;;;;;21.27;30.80;97911.88;4955706;29;982;-76
2022/06/01 11:40:00;;;;;;;;;;;;;;;21.24;30.62;97906.31;4955538;28;1059;-75
2022/06/01 11:42:32;;;;;;;;;;;;;;;21.07;30.94;97899.91;4936366;29;999;-75
2022/06/01 11:45:07;;;;;;;;;;;;;;;21.24;30.54;97906.31;4898180;29;962;-75
2022/06/01 11:47:35;;;;;;;;;;;;;;;21.18;30.66;97908.91;4917796;29;1013;-75
2022/06/01 11:50:32;;;;;;;;;;;;;;;21.26;30.83;97903.84;4917411;29;968;-75
2022/06/01 11:53:01;;;;;;;;;;;;;;;21.19;30.78;97890.69;4879987;29;1066;-75
2022/06/01 11:55:31;;;;;;;;;;;;;;;21.11;30.74;97886.47;4879625;29;927;-75
2022/06/01 11:58:05;;;;;;;;;;;;;;;21.07;30.84;97882.91;4877343;29;1010;-75
2022/06/01 12:00:31;;;;;;;;;;;;;;;21.18;30.74;97894.75;4880303;29;1028;-75
2022/06/01 12:02:57;;;;;;;;;;;;;;;21.33;30.82;97886.69;4879714;29;1899;-75
2022/06/01 12:05:30;;;;;;;;;;;;;;;21.16;30.81;97880.25;4861633;29;963;-75
2022/06/01 12:08:01;;;;;;;;;;;;;;;21.27;30.67;97875.09;4845590;29;966;-75
2022/06/01 12:10:27;;;;;;;;;;;;;;;21.22;30.85;97875.66;4861079;29;930;-75
2022/06/01 12:13:04;;;;;;;;;;;;;;;21.21;30.73;97868.41;4829563;29;1020;-75
2022/06/01 12:15:32;;;;;;;;;;;;;;;21.17;31.06;97866.91;4837231;29;1050;-75
2022/06/01 12:18:01;;;;;;;;;;;;;;;21.23;30.97;97871.56;4843999;29;1448;-75
2022/06/01 12:20:31;;;;;;;;;;;;;;;21.28;30.80;97873.84;4842685;29;1097;-75
2022/06/01 12:28:49;;;;;;;;;;;;;;;21.21;30.86;97879.72;4882879;29;1054;-75
2022/06/01 12:31:17;;;;;;;;;;;;;;;21.23;31.19;97876.44;4917411;29;910;-75
2022/06/01 12:34:00;;;;;;;;;;;;;;;21.25;30.71;97879.63;4916969;29;1084;-75
2022/06/01 12:36:26;;;;;;;;;;;;;;;21.32;30.67;97885.91;4917426;29;1362;-75
2022/06/01 12:38:51;;;;;;;;;;;;;;;21.21;31.20;97874.06;4879085;29;974;-75
2022/06/01 12:41:18;;;;;;;;;;;;;;;21.35;30.83;97877.75;4879375;29;1136;-75
2022/06/01 12:43:51;;;;;;;;;;;;;;;21.25;30.75;97891.75;4824088;29;1919;-75
2022/06/01 12:46:27;;;;;;;;;;;;;;;21.27;30.55;97892.09;4840915;29;994;-75
2022/06/01 12:49:12;;;;;;;;;;;;;;;21.29;30.54;97886.75;4860997;29;964;-75
2022/06/01 12:51:39;;;;;;;;;;;;;;;21.25;30.54;97888.91;4899511;29;926;-75
2022/06/01 12:54:05;;;;;;;;;;;;;;;21.35;30.78;97889.06;4901601;29;965;-75
2022/06/01 12:56:31;;;;;;;;;;;;;;;21.29;30.80;97898.06;4901489;29;940;-75
2022/06/01 12:58:56;;;;;;;;;;;;;;;21.23;30.86;97904.72;4901590;29;934;-75
2022/06/01 13:01:27;;;;;;;;;;;;;;;21.15;30.74;97894.88;4901464;29;895;-76
2022/06/01 13:04:12;;;;;;;;;;;;;;;21.17;30.86;97901.66;4901049;29;1975;-75
2022/06/01 13:06:39;;;;;;;;;;;;;;;21.31;30.31;97878.66;4863705;29;971;-75
2022/06/01 13:09:08;;;;;;;;;;;;;;;21.21;30.34;97890.25;4852185;29;1149;-75
2022/06/01 13:11:33;;;;;;;;;;;;;;;21.28;30.48;97902.16;4867315;29;918;-75
2022/06/01 13:13:59;;;;;;;;;;;;;;;21.24;30.54;97909.16;4882336;29;1006;-75
2022/06/01 13:16:32;;;;;;;;;;;;;;;21.42;30.04;97905.88;4867038;29;1035;-75
2022/06/01 13:18:57;;;;;;;;;;;;;;;21.21;30.59;97908.00;4867035;29;1067;-75
2022/06/01 13:21:29;;;;;;;;;;;;;;;21.28;30.17;97902.16;4916621;29;966;-75
2022/06/01 13:24:04;;;;;;;;;;;;;;;21.44;30.84;97903.38;4938768;29;1914;-75
2022/06/01 13:26:31;;;;;;;;;;;;;;;21.89;30.33;97911.03;4939028;29;974;-75
2022/06/01 13:29:08;;;;;;;;;;;;;;;21.97;31.06;97913.22;4955021;29;1137;-75
2022/06/01 13:31:34;;;;;;;;;;;;;;;21.98;31.02;97908.34;4938509;29;1079;-75
2022/06/01 13:33:59;;;;;;;;;;;;;;;21.53;31.58;97912.03;4903541;29;1445;-75